Terminal Aerodrome Forecast
Issued by NWS

Home | Current Version | Previous Version | Text Only | Print | Product List | Glossary On
Versions: 1 2 3 4 5 6 7 8 9 10 11 12 13 14 15
000
FTUS45 KABQ 271400 AAA
TAFSAF
TAF AMD
KSAF 271447Z 2715/2812 33006KT P6SM BKN005 OVC010
     FM272000 29010KT P6SM VCSH SCT070 SCT120
     FM280100 35006KT P6SM SCT100=

USA.gov is the U.S. government's official web portal to all federal, state and local government web resources and services.